Notice: Undefined index: language in /home/u110864294/public_html/vam/index.php on line 26
Air Comet Virtual

 METAR AND TAF INFORMATION
METAR FOR LXGB
ADDS - METARS form results

(1920 UTC 22 October 2018)
Data provider http://aviationweather.gov/metar/data/
 
METAR text: LXGB 221850Z 06004KT 7000 HZ FEW004 BKN008 OVC250 20/19 Q1020 GRN TEMPO BKN006 YLO1
Conditions at: LXGB (GIBRALTAR (CIV/M, GI) observed 1850 UTC 22 October 2018
Temperature: 20.0°C (68°F)
Dewpoint: 19.0°C (66°F) [RH = 94%]
Pressure (altimeter): 30.12 inches Hg (1020.0 mb)
Winds: from the ENE (60 degrees) at 5 MPH (4 knots; 2.1 m/s)
Visibility: 4 miles ( 7 km)
Ceiling: 800 feet AGL
Clouds: few clouds at 400 feet AGL
broken clouds at 800 feet AGL
overcast cloud deck at 25000 feet AGL
Weather: HZ  (haze)

METAR text: LXGB 221829Z 05005KT 6000 HZ SCT007 OVC250 20/19 Q1020 GRN TEMPO SCT006 YLO1
Conditions at: LXGB (GIBRALTAR (CIV/M, GI) observed 1829 UTC 22 October 2018
Temperature: 20.0°C (68°F)
Dewpoint: 19.0°C (66°F) [RH = 94%]
Pressure (altimeter): 30.12 inches Hg (1020.0 mb)
Winds: from the NE (50 degrees) at 6 MPH (5 knots; 2.6 m/s)
Visibility: 4 miles ( 6 km)
Ceiling: 25000 feet AGL
Clouds: scattered clouds at 700 feet AGL
overcast cloud deck at 25000 feet AGL
Weather: HZ  (haze)

Forecast for: AMD
Text: TAF AMD LXGB 221855Z 2218/2222 10008KT 8000 HZ FEW010
Forecast period: 1800 to 2200 UTC 22 October 2018
Forecast type: FROM: standard forecast or significant change
Winds: from the E (100 degrees) at 9 MPH (8 knots; 4.1 m/s)
Visibility: 5 miles (8 km)
Ceiling: at least 12,000 feet AGL
Clouds: few clouds at 1000 feet AGL
Weather: HZ  (haze)
Text: BECMG 2218/2221 6000 SCT008
Forecast period: 1800 to 2200 UTC 22 October 2018
Forecast type: BECOMING: Conditions expected to become as follows by 2100 UTC 22 October 2018
Winds: from the E (100 degrees) at 9 MPH (8 knots; 4.1 m/s)
Visibility: 4 miles (6 km)
Ceiling: at least 12,000 feet AGL
Clouds: scattered clouds at 800 feet AGL
Weather: HZ  (haze)
Text: PROB30
Forecast period: 1900 to 2200 UTC 22 October 2018
Forecast type: TEMPORARY: The following changes expected for less than half the time period
Visibility: missing
Ceiling: at least 12,000 feet AGL
Clouds: scattered clouds at 500 feet AGL
Weather: no significant weather forecast for this period

 AIRPORT MAP

 RUNWAY INFORMATION
Runway 09 Runway length 6000 ft Runway width 150 ft
Runway elevation 10 ft Runway displaced threshold 302 ft Runway heading 88
Runway 27 Runway length 6000 ft Runway width 150 ft
Runway elevation 11 ft Runway displaced threshold 368 ft Runway heading 268

 AIRPORT FREQUENCIES
Type A/D Name APP Frequency 122.8 MHZ
Type OPS Name GIB TALKDO Frequency 130.4 MHZ
Type TWR Name TWR Frequency 131.2 MHZ

 AIRPORT NEAR NAVIGATION AIDS
Type TACAN Name Gibraltar Frequency 113600 KHZ



Powered by Virtual Airlines Manager [v2.6.2]